createdAt,value
2018-03-30T00:00:57.375Z,16.97
2018-03-30T00:03:23.226Z,15.97
2018-03-30T00:05:49.117Z,15.50
2018-03-30T00:08:15.082Z,18.03
2018-03-30T00:10:47.193Z,17.53
2018-03-30T00:13:13.105Z,17.33
2018-03-30T00:15:38.954Z,18.03
2018-03-30T00:18:04.809Z,16.20
2018-03-30T00:20:30.788Z,16.47
2018-03-30T00:22:56.644Z,19.03
2018-03-30T00:25:22.485Z,18.77
2018-03-30T00:27:48.398Z,18.20
2018-03-30T00:30:14.249Z,18.00
2018-03-30T00:32:40.201Z,19.07
2018-03-30T00:35:06.093Z,20.20
2018-03-30T00:37:31.944Z,19.23
2018-03-30T00:39:57.802Z,19.30
2018-03-30T00:42:23.697Z,19.77
2018-03-30T00:44:49.644Z,20.50
2018-03-30T00:47:15.494Z,20.07
2018-03-30T00:49:41.429Z,18.23
2018-03-30T00:52:07.276Z,16.57
2018-03-30T00:54:33.136Z,17.60
2018-03-30T00:56:59.115Z,18.77
2018-03-30T00:59:24.965Z,20.43
2018-03-30T01:01:50.808Z,19.93
2018-03-30T01:04:16.705Z,19.67
2018-03-30T01:06:42.560Z,19.47
2018-03-30T01:09:08.484Z,18.87
2018-03-30T01:11:34.381Z,19.27
2018-03-30T01:14:00.233Z,20.57
2018-03-30T01:16:26.079Z,16.67
2018-03-30T01:18:52.045Z,17.47
2018-03-30T01:21:17.986Z,19.53
2018-03-30T01:23:43.841Z,18.00
2018-03-30T01:26:09.753Z,18.40
2018-03-30T01:28:35.613Z,20.60
2018-03-30T01:31:01.465Z,20.27
2018-03-30T01:33:27.445Z,19.37
2018-03-30T01:35:53.296Z,19.10
2018-03-30T01:38:19.210Z,20.63
2018-03-30T01:40:45.092Z,21.90
2018-03-30T01:43:10.945Z,19.60
2018-03-30T01:45:36.886Z,19.50
2018-03-30T01:48:02.832Z,19.43
2018-03-30T01:50:28.689Z,19.77
2018-03-30T01:52:54.551Z,22.57
2018-03-30T01:55:20.445Z,22.27
2018-03-30T01:57:46.368Z,20.87
2018-03-30T02:00:12.258Z,22.67
2018-03-30T02:02:38.157Z,21.37
2018-03-30T02:05:04.018Z,19.30
2018-03-30T02:07:29.872Z,19.57
2018-03-30T02:09:55.843Z,20.67
2018-03-30T02:12:21.740Z,17.77
2018-03-30T02:14:47.580Z,19.93
2018-03-30T02:17:13.509Z,19.23
2018-03-30T02:19:39.345Z,20.50
2018-03-30T02:22:05.296Z,19.80
2018-03-30T02:24:31.247Z,20.03
2018-03-30T02:26:57.130Z,18.23
2018-03-30T02:29:22.986Z,21.20
2018-03-30T02:31:48.905Z,19.17
2018-03-30T02:34:14.856Z,21.47
2018-03-30T02:36:40.705Z,23.77
2018-03-30T02:39:06.630Z,21.00
2018-03-30T02:41:32.487Z,20.33
2018-03-30T02:43:58.338Z,26.10
2018-03-30T02:46:24.405Z,24.57
2018-03-30T02:48:50.261Z,23.97
2018-03-30T02:51:16.105Z,23.90
2018-03-30T02:53:42.005Z,24.50
2018-03-30T02:56:14.736Z,23.17
2018-03-30T02:58:40.685Z,24.43
2018-03-30T03:01:06.578Z,23.50
2018-03-30T03:03:32.449Z,22.77
2018-03-30T03:05:58.290Z,22.60
2018-03-30T03:08:24.197Z,24.20
2018-03-30T03:10:50.155Z,26.60
2018-03-30T03:13:16.004Z,22.10
2018-03-30T03:15:41.890Z,23.37
2018-03-30T03:18:07.753Z,20.63
2018-03-30T03:20:33.674Z,24.07
2018-03-30T03:22:59.648Z,23.70
2018-03-30T03:25:25.489Z,20.47
2018-03-30T03:27:51.340Z,20.70
2018-03-30T03:30:17.220Z,20.63
2018-03-30T03:32:43.086Z,22.30
2018-03-30T03:35:09.020Z,24.63
2018-03-30T03:37:34.917Z,22.60
2018-03-30T03:40:00.756Z,21.87
2018-03-30T03:42:26.663Z,24.03
2018-03-30T03:44:52.566Z,23.13
2018-03-30T03:47:18.496Z,23.97
2018-03-30T03:49:44.363Z,23.73
2018-03-30T03:52:10.366Z,22.93
2018-03-30T03:54:36.229Z,24.63
2018-03-30T03:57:02.093Z,23.87
2018-03-30T03:59:28.069Z,24.80
2018-03-30T04:01:53.918Z,22.20
2018-03-30T04:04:19.822Z,23.20
2018-03-30T04:06:45.720Z,21.13
2018-03-30T04:09:11.568Z,23.17
2018-03-30T04:11:37.506Z,23.80
2018-03-30T04:14:03.409Z,24.03
2018-03-30T04:16:29.309Z,24.00
2018-03-30T04:18:55.152Z,23.63
2018-03-30T04:21:21.044Z,26.30
2018-03-30T04:23:46.997Z,23.97
2018-03-30T04:26:12.841Z,24.40
2018-03-30T04:28:38.772Z,25.00
2018-03-30T04:31:04.714Z,26.93
2018-03-30T04:33:30.560Z,26.73
2018-03-30T04:35:56.552Z,28.50
2018-03-30T04:38:22.425Z,26.10
2018-03-30T04:40:48.363Z,23.63
2018-03-30T04:43:14.248Z,22.07
2018-03-30T04:45:40.096Z,27.03
2018-03-30T04:48:06.020Z,25.60
2018-03-30T04:50:31.909Z,24.53
2018-03-30T04:52:57.809Z,25.20
2018-03-30T04:55:23.733Z,24.47
2018-03-30T04:57:49.622Z,22.03
2018-03-30T05:00:15.563Z,23.23
2018-03-30T05:02:41.409Z,27.23
2018-03-30T05:05:07.563Z,23.70
2018-03-30T05:07:33.421Z,26.00
2018-03-30T05:09:59.706Z,25.07
2018-03-30T05:12:25.844Z,27.47
2018-03-30T05:14:51.766Z,26.40
2018-03-30T05:17:17.859Z,25.00
2018-03-30T05:19:43.787Z,26.97
2018-03-30T05:22:09.636Z,29.20
2018-03-30T05:24:35.559Z,30.90
2018-03-30T05:27:07.720Z,29.60
2018-03-30T05:29:33.691Z,30.53
2018-03-30T05:31:59.610Z,31.97
2018-03-30T05:34:25.551Z,33.13
2018-03-30T05:36:51.470Z,28.77
2018-03-30T05:39:17.338Z,30.57
2018-03-30T05:41:43.301Z,28.63
2018-03-30T05:44:09.202Z,29.03
2018-03-30T05:46:44.807Z,28.90
2018-03-30T05:49:10.934Z,29.30
2018-03-30T05:51:36.896Z,27.17
2018-03-30T05:54:02.889Z,26.60
2018-03-30T05:56:28.955Z,29.23
2018-03-30T05:58:55.990Z,23.93
2018-03-30T06:01:22.016Z,29.60
2018-03-30T06:03:50.107Z,26.17
2018-03-30T06:06:16.146Z,29.17
2018-03-30T06:08:43.699Z,26.10
2018-03-30T06:11:09.576Z,26.00
2018-03-30T06:13:35.708Z,28.77
2018-03-30T06:16:01.664Z,30.83
2018-03-30T06:18:28.335Z,27.53
2018-03-30T06:20:54.249Z,27.37
2018-03-30T06:23:22.320Z,28.60
2018-03-30T06:25:48.336Z,25.40
2018-03-30T06:28:14.184Z,27.83
2018-03-30T06:30:40.138Z,26.80
2018-03-30T06:33:06.102Z,29.07
2018-03-30T06:35:35.141Z,27.93
2018-03-30T06:38:01.207Z,27.50
2018-03-30T06:40:27.076Z,27.17
2018-03-30T06:42:52.950Z,26.87
2018-03-30T06:45:18.910Z,25.77
2018-03-30T06:47:44.853Z,27.80
2018-03-30T06:50:10.912Z,26.90
2018-03-30T06:52:37.140Z,27.00
2018-03-30T06:55:03.181Z,29.20
2018-03-30T06:57:29.065Z,28.60
2018-03-30T06:59:55.004Z,27.50
2018-03-30T07:02:20.851Z,26.57
2018-03-30T07:04:46.827Z,29.33
2018-03-30T07:07:12.730Z,27.73
2018-03-30T07:09:38.654Z,27.50
2018-03-30T07:12:04.509Z,26.77
2018-03-30T07:14:30.459Z,25.70
2018-03-30T07:16:56.364Z,26.47
2018-03-30T07:19:22.241Z,25.17
2018-03-30T07:21:48.145Z,29.43
2018-03-30T07:24:14.031Z,27.67
2018-03-30T07:26:39.979Z,27.30
2018-03-30T07:29:05.897Z,27.87
2018-03-30T07:31:31.756Z,24.80
2018-03-30T07:33:57.643Z,24.97
2018-03-30T07:36:23.519Z,24.33
2018-03-30T07:38:49.432Z,25.00
2018-03-30T07:41:15.295Z,24.23
2018-03-30T07:43:41.187Z,24.87
2018-03-30T07:46:07.165Z,25.73
2018-03-30T07:48:33.032Z,23.77
2018-03-30T07:50:58.985Z,24.10
2018-03-30T07:53:25.129Z,23.33
2018-03-30T07:55:50.977Z,25.93
2018-03-30T07:58:17.130Z,23.57
2018-03-30T08:00:43.022Z,22.43
2018-03-30T08:03:08.972Z,22.93
2018-03-30T08:05:34.868Z,22.33
2018-03-30T08:08:00.744Z,21.10
2018-03-30T08:10:26.668Z,18.53
2018-03-30T08:12:52.640Z,18.83
2018-03-30T08:15:18.536Z,19.83
2018-03-30T08:17:44.476Z,19.17
2018-03-30T08:20:10.365Z,21.20
2018-03-30T08:22:36.336Z,19.67
2018-03-30T08:25:02.148Z,20.03
2018-03-30T08:27:28.036Z,20.60
2018-03-30T08:29:53.885Z,18.83
2018-03-30T08:32:19.832Z,17.30
2018-03-30T08:34:45.714Z,16.67
2018-03-30T08:37:11.560Z,18.20
2018-03-30T08:39:37.403Z,17.83
2018-03-30T08:42:03.304Z,17.83
2018-03-30T08:44:29.173Z,17.87
2018-03-30T08:46:55.070Z,18.27
2018-03-30T08:49:20.991Z,18.67
2018-03-30T08:51:46.848Z,17.67
2018-03-30T08:54:12.698Z,18.97
2018-03-30T08:56:38.673Z,19.77
2018-03-30T08:59:04.551Z,19.90
2018-03-30T09:01:30.400Z,22.57
2018-03-30T09:03:56.285Z,21.33
2018-03-30T09:06:22.141Z,21.73
2018-03-30T09:08:48.075Z,22.20
2018-03-30T09:11:14.002Z,22.00
2018-03-30T09:13:39.854Z,22.10
2018-03-30T09:16:05.748Z,21.40
2018-03-30T09:18:31.655Z,21.00
2018-03-30T09:20:57.504Z,20.37
2018-03-30T09:23:23.344Z,20.67
2018-03-30T09:25:49.260Z,20.97
2018-03-30T09:28:15.223Z,21.33
2018-03-30T09:30:41.094Z,19.63
2018-03-30T09:33:07.009Z,20.40
2018-03-30T09:35:32.877Z,18.73
2018-03-30T09:37:58.749Z,19.57
2018-03-30T09:40:24.654Z,19.67
2018-03-30T09:42:50.513Z,19.60
2018-03-30T09:45:16.357Z,20.53
2018-03-30T09:47:42.268Z,20.00
2018-03-30T09:50:08.169Z,19.77
2018-03-30T09:52:34.017Z,20.77
2018-03-30T09:54:59.979Z,20.97
2018-03-30T09:57:25.825Z,19.97
2018-03-30T09:59:51.677Z,21.87
2018-03-30T10:02:17.591Z,21.83
2018-03-30T10:04:43.468Z,20.13
2018-03-30T10:07:14.068Z,20.70
2018-03-30T10:09:40.213Z,21.03
2018-03-30T10:12:06.120Z,22.20
2018-03-30T10:14:31.984Z,25.12
2018-03-30T10:16:57.880Z,22.67
2018-03-30T10:19:23.759Z,22.90
2018-03-30T10:21:49.623Z,20.80
2018-03-30T10:24:15.512Z,21.23
2018-03-30T10:26:41.499Z,22.30
2018-03-30T10:29:07.502Z,20.93
2018-03-30T10:31:33.421Z,23.00
2018-03-30T10:33:59.282Z,23.00
2018-03-30T10:36:25.165Z,21.57
2018-03-30T10:38:51.060Z,22.37
2018-03-30T10:41:16.909Z,23.30
2018-03-30T10:43:42.888Z,23.00
2018-03-30T10:46:08.784Z,21.80
2018-03-30T10:48:34.646Z,23.33
2018-03-30T10:51:00.503Z,23.10
2018-03-30T10:53:26.470Z,22.83
2018-03-30T10:55:52.447Z,21.93
2018-03-30T10:58:18.368Z,23.03
2018-03-30T11:00:44.417Z,23.87
2018-03-30T11:03:10.277Z,21.30
2018-03-30T11:05:36.161Z,23.80
2018-03-30T11:08:03.693Z,21.77
2018-03-30T11:10:29.641Z,24.87
2018-03-30T11:12:55.562Z,22.73
2018-03-30T11:15:21.454Z,21.90
2018-03-30T11:17:47.318Z,22.33
2018-03-30T11:20:13.189Z,24.27
2018-03-30T11:25:11.637Z,21.63
2018-03-30T11:27:37.501Z,21.80
2018-03-30T11:30:03.427Z,21.27
2018-03-30T11:32:29.322Z,21.20
2018-03-30T11:34:55.192Z,21.00
2018-03-30T11:37:21.118Z,22.97
2018-03-30T11:39:46.989Z,22.07
2018-03-30T11:42:12.853Z,22.23
2018-03-30T11:44:38.752Z,19.80
2018-03-30T11:47:04.624Z,21.80
2018-03-30T11:49:30.479Z,20.07
2018-03-30T11:51:56.380Z,19.43
2018-03-30T11:54:22.221Z,19.97
2018-03-30T11:56:48.082Z,19.13
2018-03-30T11:59:14.008Z,20.27
2018-03-30T12:01:39.965Z,19.67
2018-03-30T12:04:05.833Z,18.83
2018-03-30T12:06:31.733Z,19.60
2018-03-30T12:08:57.604Z,18.53
2018-03-30T12:11:23.457Z,19.10
2018-03-30T12:13:49.450Z,20.13
2018-03-30T12:16:15.298Z,18.60
2018-03-30T12:18:41.173Z,19.13
2018-03-30T12:21:07.162Z,17.90
2018-03-30T12:23:33.025Z,20.03
2018-03-30T12:25:58.976Z,19.40
2018-03-30T12:28:24.876Z,19.07
2018-03-30T12:30:50.736Z,18.63
2018-03-30T12:33:16.599Z,19.93
2018-03-30T12:35:42.511Z,18.33
2018-03-30T12:38:08.409Z,17.90
2018-03-30T12:40:34.290Z,18.03
2018-03-30T12:43:00.183Z,17.00
2018-03-30T12:45:26.154Z,17.03
2018-03-30T12:47:52.015Z,17.27
2018-03-30T12:50:17.964Z,15.97
2018-03-30T12:52:43.833Z,13.47
2018-03-30T12:55:09.704Z,15.30
2018-03-30T12:57:35.663Z,15.47
2018-03-30T13:00:01.533Z,15.43
2018-03-30T13:02:27.415Z,16.00
2018-03-30T13:04:53.745Z,16.30
2018-03-30T13:07:19.612Z,16.00
2018-03-30T13:09:45.464Z,16.33
2018-03-30T13:12:11.382Z,17.60
2018-03-30T13:14:37.320Z,17.23
2018-03-30T13:17:03.177Z,16.37
2018-03-30T13:19:29.088Z,15.17
2018-03-30T13:21:54.955Z,15.77
2018-03-30T13:24:20.877Z,15.40
2018-03-30T13:26:47.175Z,15.83
2018-03-30T13:29:13.126Z,15.13
2018-03-30T13:31:39.000Z,14.47
2018-03-30T13:34:05.481Z,13.00
2018-03-30T13:36:31.420Z,12.83
2018-03-30T13:38:57.404Z,12.90
2018-03-30T13:41:23.300Z,15.03
2018-03-30T13:43:49.264Z,13.67
2018-03-30T13:46:15.141Z,12.83
2018-03-30T13:48:41.061Z,12.70
2018-03-30T13:51:11.901Z,14.93
2018-03-30T13:53:39.706Z,12.47
2018-03-30T13:56:06.517Z,12.27
2018-03-30T13:58:37.203Z,13.23
2018-03-30T14:01:09.893Z,13.63
2018-03-30T14:03:37.710Z,13.63
2018-03-30T14:06:23.490Z,12.60
2018-03-30T14:08:49.360Z,12.10
2018-03-30T14:11:16.082Z,12.27
2018-03-30T14:13:42.095Z,13.10
2018-03-30T14:16:25.758Z,12.20
2018-03-30T14:19:00.702Z,13.30
2018-03-30T14:21:28.302Z,13.17
2018-03-30T14:23:58.092Z,17.40
2018-03-30T14:26:30.347Z,13.33
2018-03-30T14:29:00.167Z,12.70
2018-03-30T14:31:29.021Z,12.07
2018-03-30T14:33:55.304Z,12.03
2018-03-30T14:39:35.677Z,11.20
2018-03-30T14:42:02.376Z,12.30
2018-03-30T14:44:32.755Z,12.07
2018-03-30T14:47:04.553Z,9.70
2018-03-30T14:49:33.689Z,9.40
2018-03-30T14:55:21.339Z,9.03
2018-03-30T14:57:50.102Z,9.20
2018-03-30T15:00:28.981Z,9.27
2018-03-30T15:02:57.786Z,8.87
2018-03-30T15:08:27.596Z,8.60
2018-03-30T15:11:00.298Z,8.90
2018-03-30T15:13:36.160Z,8.37
2018-03-30T15:16:05.898Z,9.37
2018-03-30T15:18:33.105Z,9.13
2018-03-30T15:21:00.938Z,8.93
2018-03-30T15:23:30.749Z,9.43
2018-03-30T15:26:00.535Z,8.70
2018-03-30T15:28:35.300Z,10.63
2018-03-30T15:34:28.917Z,8.97
2018-03-30T15:40:02.016Z,9.43
2018-03-30T15:42:30.829Z,11.03
2018-03-30T15:44:57.561Z,13.20
2018-03-30T15:47:23.637Z,13.03
2018-03-30T15:49:49.591Z,13.40
2018-03-30T15:52:30.458Z,13.77
2018-03-30T15:54:56.373Z,12.73
2018-03-30T15:57:22.265Z,14.13
2018-03-30T15:59:48.250Z,14.27
2018-03-30T16:02:14.199Z,14.57
2018-03-30T16:04:40.103Z,14.00
2018-03-30T16:07:06.481Z,13.47
2018-03-30T16:09:40.649Z,12.67
2018-03-30T16:12:07.004Z,12.63
2018-03-30T16:14:32.917Z,12.97
2018-03-30T16:16:58.905Z,13.30
2018-03-30T16:19:24.753Z,13.67
2018-03-30T16:21:50.612Z,13.70
2018-03-30T16:24:16.397Z,14.07
2018-03-30T16:26:42.386Z,14.80
2018-03-30T16:29:08.249Z,14.13
2018-03-30T16:31:33.963Z,13.87
2018-03-30T16:33:59.715Z,15.67
2018-03-30T16:36:25.467Z,14.67
2018-03-30T16:38:51.269Z,14.03
2018-03-30T16:41:16.986Z,14.57
2018-03-30T16:43:42.721Z,14.17
2018-03-30T16:46:08.626Z,14.97
2018-03-30T16:48:34.420Z,15.40
2018-03-30T16:51:00.163Z,15.90
2018-03-30T16:53:25.940Z,14.33
2018-03-30T16:55:51.745Z,15.30
2018-03-30T16:58:17.648Z,14.40
2018-03-30T17:00:43.469Z,14.23
2018-03-30T17:03:09.197Z,16.20
2018-03-30T17:05:34.936Z,16.07
2018-03-30T17:08:01.133Z,18.50
2018-03-30T17:10:26.870Z,15.40
2018-03-30T17:12:52.662Z,14.57
2018-03-30T17:15:18.510Z,16.77
2018-03-30T17:17:44.250Z,16.60
2018-03-30T17:20:10.078Z,13.10
2018-03-30T17:22:35.853Z,12.43
2018-03-30T17:25:01.913Z,11.50
2018-03-30T17:27:27.711Z,11.27
2018-03-30T17:29:53.477Z,11.60
2018-03-30T17:32:19.295Z,11.53
2018-03-30T17:34:45.030Z,10.77
2018-03-30T17:37:11.292Z,10.23
2018-03-30T17:39:37.021Z,10.20
2018-03-30T17:42:02.746Z,10.80
2018-03-30T17:44:28.618Z,13.60
2018-03-30T17:46:54.345Z,19.37
2018-03-30T17:49:20.139Z,20.27
2018-03-30T17:51:45.908Z,32.83
2018-03-30T17:54:11.626Z,40.47
2018-03-30T17:56:37.459Z,26.07
2018-03-30T17:59:03.286Z,14.97
2018-03-30T18:01:29.094Z,18.63
2018-03-30T18:03:54.857Z,19.87
2018-03-30T18:06:21.001Z,18.87
2018-03-30T18:08:47.011Z,13.10
2018-03-30T18:11:13.211Z,14.93
2018-03-30T18:13:38.984Z,12.80
2018-03-30T18:16:04.714Z,20.10
2018-03-30T18:18:30.444Z,20.73
2018-03-30T18:20:56.309Z,19.47
2018-03-30T18:23:22.033Z,14.77
2018-03-30T18:25:47.758Z,14.83
2018-03-30T18:28:13.529Z,13.43
2018-03-30T18:30:39.254Z,15.33
2018-03-30T18:33:05.086Z,13.63
2018-03-30T18:35:31.169Z,11.20
2018-03-30T18:37:56.920Z,10.27
2018-03-30T18:40:22.674Z,10.90
2018-03-30T18:42:48.438Z,9.90
2018-03-30T18:45:15.048Z,10.27
2018-03-30T18:47:40.791Z,9.03
2018-03-30T18:50:06.632Z,8.20
2018-03-30T18:52:32.360Z,9.10
2018-03-30T18:54:58.080Z,9.80
2018-03-30T18:57:23.985Z,10.43
2018-03-30T18:59:49.713Z,10.47
2018-03-30T19:02:15.456Z,10.10
2018-03-30T19:04:41.246Z,12.03
2018-03-30T19:07:06.974Z,9.37
2018-03-30T19:09:32.935Z,10.60
2018-03-30T19:11:58.988Z,12.30
2018-03-30T19:14:24.778Z,11.57
2018-03-30T19:16:50.522Z,13.87
2018-03-30T19:19:16.303Z,15.60
2018-03-30T19:21:42.137Z,11.90
2018-03-30T19:24:07.870Z,10.00
2018-03-30T19:26:33.669Z,10.07
2018-03-30T19:28:59.430Z,9.27
2018-03-30T19:31:25.284Z,9.87
2018-03-30T19:33:51.184Z,9.33
2018-03-30T19:36:17.245Z,9.27
2018-03-30T19:38:42.985Z,9.40
2018-03-30T19:41:08.751Z,9.83
2018-03-30T19:43:34.561Z,10.50
2018-03-30T19:46:01.276Z,13.17
2018-03-30T19:48:27.309Z,11.67
2018-03-30T19:50:53.058Z,11.27
2018-03-30T19:53:18.768Z,10.57
2018-03-30T19:55:44.554Z,12.50
2018-03-30T19:58:10.444Z,13.33
2018-03-30T20:00:36.500Z,11.73
2018-03-30T20:03:02.315Z,11.03
2018-03-30T20:05:28.050Z,11.33
2018-03-30T20:07:53.878Z,10.07
2018-03-30T20:10:19.705Z,11.27
2018-03-30T20:12:45.729Z,11.83
2018-03-30T20:15:11.499Z,11.77
2018-03-30T20:17:37.348Z,11.40
2018-03-30T20:20:03.568Z,10.30
2018-03-30T20:22:29.381Z,10.37
2018-03-30T20:24:55.152Z,11.03
2018-03-30T20:27:20.877Z,11.20
2018-03-30T20:29:46.645Z,11.37
2018-03-30T20:32:12.637Z,12.10
2018-03-30T20:34:38.466Z,11.40
2018-03-30T20:37:04.555Z,12.10
2018-03-30T20:39:30.349Z,11.33
2018-03-30T20:41:56.078Z,11.60
2018-03-30T20:44:21.848Z,11.77
2018-03-30T20:46:47.668Z,12.10
2018-03-30T20:49:13.725Z,12.83
2018-03-30T20:51:39.550Z,12.60
2018-03-30T20:54:05.550Z,13.37
2018-03-30T20:56:31.392Z,14.03
2018-03-30T20:58:58.369Z,12.37
2018-03-30T21:01:24.166Z,13.27
2018-03-30T21:03:49.909Z,13.27
2018-03-30T21:06:15.620Z,15.70
2018-03-30T21:08:41.815Z,13.83
2018-03-30T21:11:07.595Z,11.57
2018-03-30T21:13:33.353Z,11.50
2018-03-30T21:15:59.160Z,12.33
2018-03-30T21:18:25.217Z,13.77
2018-03-30T21:20:50.972Z,12.63
2018-03-30T21:23:16.724Z,12.90
2018-03-30T21:25:42.481Z,12.03
2018-03-30T21:28:08.221Z,11.93
2018-03-30T21:30:34.217Z,12.13
2018-03-30T21:33:00.470Z,11.63
2018-03-30T21:35:26.253Z,11.27
2018-03-30T21:37:52.029Z,12.17
2018-03-30T21:40:17.762Z,11.80
2018-03-30T21:42:43.481Z,11.97
2018-03-30T21:45:09.244Z,11.63
2018-03-30T21:47:35.077Z,12.93
2018-03-30T21:50:00.797Z,12.30
2018-03-30T21:52:26.567Z,12.07
2018-03-30T21:54:52.302Z,11.93
2018-03-30T21:57:18.045Z,12.60
2018-03-30T21:59:43.808Z,12.77
2018-03-30T22:02:09.537Z,12.63
2018-03-30T22:04:35.262Z,11.90
2018-03-30T22:07:01.031Z,13.33
2018-03-30T22:09:26.786Z,12.77
2018-03-30T22:11:52.513Z,12.23
2018-03-30T22:14:18.576Z,13.07
2018-03-30T22:16:44.339Z,12.87
2018-03-30T22:19:10.052Z,11.80
2018-03-30T22:21:35.813Z,12.57
2018-03-30T22:24:01.537Z,13.33
2018-03-30T22:26:27.361Z,12.73
2018-03-30T22:28:53.133Z,12.80
2018-03-30T22:31:18.874Z,12.33
2018-03-30T22:33:44.602Z,12.20
2018-03-30T22:36:10.387Z,13.53
2018-03-30T22:38:36.233Z,12.43
2018-03-30T22:41:01.956Z,12.00
2018-03-30T22:43:27.732Z,12.83
2018-03-30T22:45:53.470Z,14.93
2018-03-30T22:48:19.186Z,13.87
2018-03-30T22:50:45.062Z,12.67
2018-03-30T22:53:10.785Z,13.73
2018-03-30T22:55:36.589Z,12.53
2018-03-30T22:58:02.364Z,12.57
2018-03-30T23:00:28.099Z,13.20
2018-03-30T23:02:53.917Z,13.80
2018-03-30T23:05:19.847Z,13.53
2018-03-30T23:07:45.567Z,12.77
2018-03-30T23:10:11.302Z,13.17
2018-03-30T23:12:37.116Z,12.50
2018-03-30T23:15:02.934Z,13.20
2018-03-30T23:17:28.656Z,12.73
2018-03-30T23:19:54.417Z,13.03
2018-03-30T23:22:20.207Z,12.87
2018-03-30T23:24:45.988Z,13.00
2018-03-30T23:27:11.870Z,13.20
2018-03-30T23:29:37.602Z,12.73
2018-03-30T23:32:03.311Z,12.80
2018-03-30T23:34:29.080Z,12.77
2018-03-30T23:36:54.877Z,13.00
2018-03-30T23:39:20.698Z,12.77
2018-03-30T23:41:46.478Z,13.37
2018-03-30T23:44:12.198Z,13.90
2018-03-30T23:46:37.929Z,13.53
2018-03-30T23:49:03.750Z,12.70
2018-03-30T23:51:29.560Z,13.47
2018-03-30T23:53:55.277Z,12.77
2018-03-30T23:56:21.041Z,12.87
2018-03-30T23:58:46.776Z,13.60
